Time;durP1;ratioP1;P1;durP2;ratioP2;P2;SDS_P1;SDS_P2;PMS_P1;PMS_P2;Temp;Humidity;BMP_temperature;BMP_pressure;BME280_temperature;BME280_humidity;BME280_pressure;Samples;Min_cycle;Max_cycle;Signal;HPM_P1;HPM_P2
2022/11/24 00:04:43;;;;;;;11.50;6.20;;;;;;;;;;10514495;28;20067;-79
2022/11/24 00:09:43;;;;;;;10.80;4.82;;;;;;;;;;10495354;28;20020;-73
2022/11/24 00:14:45;;;;;;;11.80;6.18;;;;;;;;;;10511720;28;20031;-80
2022/11/24 00:19:46;;;;;;;12.07;6.25;;;;;;;;;;10513196;28;20551;-73
2022/11/24 00:24:46;;;;;;;15.23;7.03;;;;;;;;;;10511801;28;20085;-75
2022/11/24 00:29:46;;;;;;;9.52;6.20;;;;;;;;;;10511063;28;20016;-77
2022/11/24 00:34:47;;;;;;;9.07;6.05;;;;;;;;;;10536687;28;20054;-78
2022/11/24 00:39:49;;;;;;;10.55;5.78;;;;;;;;;;10521362;28;20035;-75
2022/11/24 00:44:49;;;;;;;9.48;5.25;;;;;;;;;;10477388;28;20408;-73
2022/11/24 00:49:50;;;;;;;9.80;4.80;;;;;;;;;;10509479;28;20020;-76
2022/11/24 00:54:50;;;;;;;10.88;5.63;;;;;;;;;;10518589;28;20013;-74
2022/11/24 00:59:50;;;;;;;10.70;4.60;;;;;;;;;;10527581;28;20036;-74
2022/11/24 01:04:50;;;;;;;7.10;4.65;;;;;;;;;;10540386;28;20051;-74
2022/11/24 01:09:51;;;;;;;7.63;4.95;;;;;;;;;;10578131;28;20015;-74
2022/11/24 01:14:51;;;;;;;8.57;4.10;;;;;;;;;;10559288;28;20016;-75
2022/11/24 01:19:51;;;;;;;11.38;5.93;;;;;;;;;;10559459;28;20024;-73
2022/11/24 01:24:51;;;;;;;7.30;4.20;;;;;;;;;;10559653;28;20024;-81
2022/11/24 01:29:53;;;;;;;8.55;5.13;;;;;;;;;;10559063;28;20349;-76
2022/11/24 01:34:53;;;;;;;10.55;4.78;;;;;;;;;;10542523;28;20047;-75
2022/11/24 01:39:55;;;;;;;11.60;4.28;;;;;;;;;;10577913;28;20478;-77
2022/11/24 01:45:14;;;;;;;8.98;4.30;;;;;;;;;;10559630;28;20377;-80
2022/11/24 01:50:15;;;;;;;8.40;3.65;;;;;;;;;;10539231;28;20070;-73
2022/11/24 01:55:18;;;;;;;15.43;4.78;;;;;;;;;;10538645;28;20032;-70
2022/11/24 02:00:19;;;;;;;8.23;4.97;;;;;;;;;;10544425;28;20889;-73
2022/11/24 02:05:24;;;;;;;12.32;3.95;;;;;;;;;;10564849;28;20139;-72
2022/11/24 02:10:24;;;;;;;5.82;3.92;;;;;;;;;;10547475;28;20048;-73
2022/11/24 02:15:25;;;;;;;6.57;3.63;;;;;;;;;;10534209;28;20066;-73
2022/11/24 02:20:25;;;;;;;11.45;4.20;;;;;;;;;;10549027;28;20082;-77
2022/11/24 02:25:35;;;;;;;6.82;4.78;;;;;;;;;;10533295;28;20028;-79
2022/11/24 02:30:35;;;;;;;8.82;3.63;;;;;;;;;;10575088;28;20019;-73
2022/11/24 02:35:35;;;;;;;6.72;3.42;;;;;;;;;;10556526;28;20415;-80
2022/11/24 02:40:36;;;;;;;7.07;3.53;;;;;;;;;;10556573;28;20539;-73
2022/11/24 02:45:36;;;;;;;9.07;3.55;;;;;;;;;;10574340;28;20023;-77
2022/11/24 02:50:36;;;;;;;7.53;4.03;;;;;;;;;;10555441;28;20440;-81
2022/11/24 02:55:36;;;;;;;6.13;3.50;;;;;;;;;;10555727;28;20138;-80
2022/11/24 03:00:37;;;;;;;17.00;4.18;;;;;;;;;;10555080;28;20046;-76
2022/11/24 03:05:37;;;;;;;8.20;3.58;;;;;;;;;;10574154;28;20051;-76
2022/11/24 03:10:38;;;;;;;5.63;3.13;;;;;;;;;;10541710;28;20103;-76
2022/11/24 03:15:38;;;;;;;5.13;3.03;;;;;;;;;;10553619;28;20244;-79
2022/11/24 03:20:38;;;;;;;4.90;2.65;;;;;;;;;;10522407;28;20016;-75
2022/11/24 03:25:39;;;;;;;6.43;2.97;;;;;;;;;;10555990;28;20024;-80
2022/11/24 03:30:39;;;;;;;8.98;3.88;;;;;;;;;;10547409;28;20411;-80
2022/11/24 03:35:40;;;;;;;7.50;3.25;;;;;;;;;;10518100;28;20028;-75
2022/11/24 03:40:41;;;;;;;5.10;2.72;;;;;;;;;;10522857;28;20078;-76
2022/11/24 03:45:45;;;;;;;4.82;2.97;;;;;;;;;;10518797;28;20380;-75
2022/11/24 03:50:56;;;;;;;7.38;3.08;;;;;;;;;;10538362;28;20103;-73
2022/11/24 03:55:58;;;;;;;6.47;3.45;;;;;;;;;;10553854;28;20028;-74
2022/11/24 04:00:58;;;;;;;5.53;3.20;;;;;;;;;;10572043;28;20098;-73
2022/11/24 04:05:58;;;;;;;4.97;3.27;;;;;;;;;;10553278;28;20056;-74
2022/11/24 04:10:59;;;;;;;7.57;3.42;;;;;;;;;;10544823;28;20015;-76
2022/11/24 04:16:03;;;;;;;7.28;3.67;;;;;;;;;;10595148;28;20075;-74
2022/11/24 04:21:04;;;;;;;8.10;3.78;;;;;;;;;;10578436;28;20490;-74
2022/11/24 04:26:04;;;;;;;6.87;3.00;;;;;;;;;;10538650;28;20020;-72
2022/11/24 04:31:04;;;;;;;9.25;3.25;;;;;;;;;;10521591;28;20024;-74
2022/11/24 04:36:05;;;;;;;10.52;2.80;;;;;;;;;;10521297;28;20193;-74
2022/11/24 04:41:05;;;;;;;6.23;2.73;;;;;;;;;;10520318;28;20028;-78
2022/11/24 04:46:09;;;;;;;8.23;3.35;;;;;;;;;;10515419;28;20281;-75
2022/11/24 04:51:12;;;;;;;6.80;3.90;;;;;;;;;;10516072;28;20020;-73
2022/11/24 04:56:12;;;;;;;7.35;4.05;;;;;;;;;;10535862;28;20032;-75
2022/11/24 05:01:12;;;;;;;9.90;4.35;;;;;;;;;;10534584;28;20020;-75
2022/11/24 05:06:15;;;;;;;10.77;4.65;;;;;;;;;;10542884;28;20139;-78
2022/11/24 05:11:17;;;;;;;9.52;5.82;;;;;;;;;;10508031;28;20089;-77
2022/11/24 05:16:17;;;;;;;14.10;5.53;;;;;;;;;;10532690;28;20119;-76
2022/11/24 05:21:17;;;;;;;24.50;6.47;;;;;;;;;;10559007;28;20107;-77
2022/11/24 05:26:18;;;;;;;19.35;7.30;;;;;;;;;;10538676;28;20064;-75
2022/11/24 05:31:18;;;;;;;11.57;6.97;;;;;;;;;;10515224;28;20020;-75
2022/11/24 05:41:37;;;;;;;20.27;7.15;;;;;;;;;;10534829;28;20337;-74
2022/11/24 05:46:37;;;;;;;24.75;8.43;;;;;;;;;;10523361;28;20534;-73
2022/11/24 05:51:38;;;;;;;21.13;7.18;;;;;;;;;;10553393;28;20499;-76
2022/11/24 05:56:38;;;;;;;17.58;7.50;;;;;;;;;;10524771;28;20489;-78
2022/11/24 06:01:39;;;;;;;19.95;7.68;;;;;;;;;;10553306;28;20077;-79
2022/11/24 06:06:39;;;;;;;13.43;7.38;;;;;;;;;;10552677;28;20052;-80
2022/11/24 06:11:39;;;;;;;16.90;6.23;;;;;;;;;;10556555;28;20035;-75
2022/11/24 06:16:40;;;;;;;25.25;8.52;;;;;;;;;;10575401;28;20031;-74
2022/11/24 06:21:40;;;;;;;33.67;8.10;;;;;;;;;;10506640;28;20125;-74
2022/11/24 06:26:40;;;;;;;14.85;7.00;;;;;;;;;;10553246;28;20043;-81
2022/11/24 06:31:41;;;;;;;22.75;6.22;;;;;;;;;;10556133;28;20081;-79
2022/11/24 06:36:42;;;;;;;15.68;5.82;;;;;;;;;;10556747;28;20027;-81
2022/11/24 06:41:43;;;;;;;14.03;6.67;;;;;;;;;;10575906;28;20024;-73
2022/11/24 06:46:45;;;;;;;29.75;7.00;;;;;;;;;;10565717;28;20039;-72
2022/11/24 06:51:46;;;;;;;18.40;6.93;;;;;;;;;;10570339;28;20031;-80
2022/11/24 06:56:46;;;;;;;13.80;5.43;;;;;;;;;;10557401;28;20077;-74
2022/11/24 07:01:46;;;;;;;12.85;5.90;;;;;;;;;;10556894;28;20050;-73
2022/11/24 07:06:48;;;;;;;13.15;5.57;;;;;;;;;;10557244;28;20496;-75
2022/11/24 07:11:49;;;;;;;27.83;12.20;;;;;;;;;;10574132;28;20066;-75
2022/11/24 07:16:49;;;;;;;23.20;12.60;;;;;;;;;;10572938;28;20034;-74
2022/11/24 07:21:49;;;;;;;24.75;13.20;;;;;;;;;;10544817;28;20026;-75
2022/11/24 07:26:50;;;;;;;43.35;16.63;;;;;;;;;;10554546;28;20023;-80
2022/11/24 07:31:50;;;;;;;40.50;15.88;;;;;;;;;;10537545;28;20449;-77
2022/11/24 07:36:51;;;;;;;30.25;15.65;;;;;;;;;;10553263;28;20160;-75
2022/11/24 07:41:51;;;;;;;29.20;15.33;;;;;;;;;;10554131;28;20468;-76
2022/11/24 07:46:51;;;;;;;23.77;10.55;;;;;;;;;;10553840;28;20490;-74
2022/11/24 07:51:51;;;;;;;18.63;8.98;;;;;;;;;;10572215;28;20123;-77
2022/11/24 07:56:52;;;;;;;18.10;10.45;;;;;;;;;;10572329;28;20458;-73
2022/11/24 08:01:52;;;;;;;23.23;10.43;;;;;;;;;;10554346;28;20023;-78
2022/11/24 08:06:52;;;;;;;18.92;10.30;;;;;;;;;;10553475;28;20047;-74
2022/11/24 08:11:52;;;;;;;20.73;9.55;;;;;;;;;;10554467;28;20028;-75
2022/11/24 08:16:53;;;;;;;15.77;9.75;;;;;;;;;;10553845;28;20491;-75
2022/11/24 08:21:54;;;;;;;17.95;8.90;;;;;;;;;;10553989;28;20019;-74
2022/11/24 08:26:55;;;;;;;21.35;9.85;;;;;;;;;;10554724;28;20058;-77
2022/11/24 08:31:56;;;;;;;16.08;9.05;;;;;;;;;;10571784;28;20103;-75
2022/11/24 08:36:59;;;;;;;21.63;9.73;;;;;;;;;;10571766;28;20058;-77
2022/11/24 08:42:00;;;;;;;18.80;9.15;;;;;;;;;;10553113;28;20414;-74
2022/11/24 08:47:00;;;;;;;20.33;9.52;;;;;;;;;;10552925;28;20099;-75
2022/11/24 08:52:00;;;;;;;21.42;10.82;;;;;;;;;;10552599;28;20019;-74
2022/11/24 08:57:00;;;;;;;17.25;8.95;;;;;;;;;;10560225;28;20023;-74
2022/11/24 09:02:00;;;;;;;14.23;6.63;;;;;;;;;;10592529;28;20024;-73
2022/11/24 09:07:01;;;;;;;13.55;7.18;;;;;;;;;;10591587;28;20130;-71
2022/11/24 09:12:03;;;;;;;8.52;4.47;;;;;;;;;;10583043;28;20141;-72
2022/11/24 09:17:03;;;;;;;8.00;4.90;;;;;;;;;;10580385;28;20031;-73
2022/11/24 09:22:03;;;;;;;10.82;5.88;;;;;;;;;;10556959;28;20024;-76
2022/11/24 09:27:04;;;;;;;10.05;5.47;;;;;;;;;;10539247;28;20019;-76
2022/11/24 09:32:04;;;;;;;12.73;5.28;;;;;;;;;;10560236;28;20506;-76
2022/11/24 09:37:04;;;;;;;7.25;4.00;;;;;;;;;;10544632;28;20024;-78
2022/11/24 09:42:23;;;;;;;6.57;4.00;;;;;;;;;;10534522;28;20110;-77
2022/11/24 09:47:33;;;;;;;5.78;2.95;;;;;;;;;;10556374;28;20053;-76
2022/11/24 09:52:46;;;;;;;5.20;2.78;;;;;;;;;;10576339;28;20027;-75
2022/11/24 09:57:51;;;;;;;4.88;2.28;;;;;;;;;;10558052;28;20460;-75
2022/11/24 10:02:52;;;;;;;2.72;1.70;;;;;;;;;;10575825;28;20027;-74
2022/11/24 10:08:10;;;;;;;2.13;1.50;;;;;;;;;;10556939;28;20928;-74
2022/11/24 10:13:29;;;;;;;4.25;2.25;;;;;;;;;;10473933;28;20020;-74
2022/11/24 10:18:29;;;;;;;8.77;2.25;;;;;;;;;;10528364;28;20097;-75
2022/11/24 10:23:39;;;;;;;4.28;2.38;;;;;;;;;;10557260;28;20100;-76
2022/11/24 10:28:43;;;;;;;3.85;2.15;;;;;;;;;;10557424;28;20019;-74
2022/11/24 10:33:44;;;;;;;9.80;3.17;;;;;;;;;;10574961;28;20021;-80
2022/11/24 10:38:56;;;;;;;11.77;2.78;;;;;;;;;;10575216;28;20038;-74
2022/11/24 10:43:58;;;;;;;5.85;2.70;;;;;;;;;;10556924;28;20055;-73
2022/11/24 10:49:03;;;;;;;9.88;3.00;;;;;;;;;;10575509;28;20027;-82
2022/11/24 10:54:14;;;;;;;4.90;2.35;;;;;;;;;;10505324;28;20024;-73
2022/11/24 10:59:34;;;;;;;7.07;2.70;;;;;;;;;;10582723;28;20023;-75
2022/11/24 11:04:35;;;;;;;9.52;3.45;;;;;;;;;;10577726;28;20252;-73
2022/11/24 11:09:35;;;;;;;11.30;3.28;;;;;;;;;;10583253;28;20487;-79
2022/11/24 11:14:35;;;;;;;9.43;3.90;;;;;;;;;;10555530;28;20035;-74
2022/11/24 11:19:41;;;;;;;6.47;3.80;;;;;;;;;;10554529;28;20020;-75
2022/11/24 11:24:42;;;;;;;15.70;4.38;;;;;;;;;;10555152;28;20049;-74
2022/11/24 11:29:42;;;;;;;8.00;3.65;;;;;;;;;;10554858;28;20026;-75
2022/11/24 11:34:43;;;;;;;6.13;3.40;;;;;;;;;;10576319;28;20471;-76
2022/11/24 11:39:45;;;;;;;10.15;4.38;;;;;;;;;;10542546;28;20077;-78
2022/11/24 11:44:53;;;;;;;8.45;4.60;;;;;;;;;;10534562;28;20032;-74
2022/11/24 11:49:54;;;;;;;13.60;5.93;;;;;;;;;;10554467;28;20020;-75
2022/11/24 11:55:07;;;;;;;8.23;5.55;;;;;;;;;;10573354;28;20031;-78
2022/11/24 12:00:18;;;;;;;6.93;4.20;;;;;;;;;;10554271;28;20028;-75
2022/11/24 12:05:37;;;;;;;14.85;6.20;;;;;;;;;;10513771;28;20050;-74
2022/11/24 12:10:57;;;;;;;7.63;4.18;;;;;;;;;;10565940;28;20024;-76
2022/11/24 12:16:03;;;;;;;14.80;5.53;;;;;;;;;;10490203;28;20528;-74
2022/11/24 12:21:16;;;;;;;6.70;3.97;;;;;;;;;;10493623;28;20016;-74
2022/11/24 12:26:20;;;;;;;9.85;4.10;;;;;;;;;;10571713;28;20019;-74
2022/11/24 12:31:38;;;;;;;13.15;5.18;;;;;;;;;;10560891;28;20019;-76
2022/11/24 12:36:40;;;;;;;7.50;4.10;;;;;;;;;;10561562;28;20487;-73
2022/11/24 12:41:49;;;;;;;13.35;5.53;;;;;;;;;;10528457;28;20028;-74
2022/11/24 12:46:53;;;;;;;5.80;3.95;;;;;;;;;;10509758;28;20032;-74
2022/11/24 12:51:57;;;;;;;7.80;4.03;;;;;;;;;;10517305;28;20036;-73
2022/11/24 12:57:12;;;;;;;8.77;4.57;;;;;;;;;;10521748;28;20086;-74
2022/11/24 13:02:19;;;;;;;6.53;4.40;;;;;;;;;;10560656;28;20130;-73
2022/11/24 13:07:38;;;;;;;5.07;3.38;;;;;;;;;;10560473;28;20047;-73
2022/11/24 13:12:59;;;;;;;6.32;3.67;;;;;;;;;;10560536;28;20031;-79
2022/11/24 13:18:00;;;;;;;7.07;4.32;;;;;;;;;;10524426;28;20029;-75
2022/11/24 13:23:01;;;;;;;12.55;4.90;;;;;;;;;;10510157;28;20051;-76
2022/11/24 13:28:03;;;;;;;7.55;4.60;;;;;;;;;;10543874;28;20460;-76
2022/11/24 13:33:09;;;;;;;12.07;3.88;;;;;;;;;;10522150;28;20465;-75
2022/11/24 13:38:28;;;;;;;6.40;4.45;;;;;;;;;;10527316;28;20067;-74
2022/11/24 13:43:28;;;;;;;5.40;3.97;;;;;;;;;;10519055;28;20032;-76
2022/11/24 13:48:29;;;;;;;6.53;3.90;;;;;;;;;;10514278;28;20418;-74
2022/11/24 13:53:38;;;;;;;8.27;5.00;;;;;;;;;;10508620;28;20491;-74
2022/11/24 13:58:40;;;;;;;7.40;4.50;;;;;;;;;;10522785;28;20031;-74
2022/11/24 14:03:40;;;;;;;4.72;3.15;;;;;;;;;;10520745;28;20068;-75
2022/11/24 14:08:44;;;;;;;7.22;4.80;;;;;;;;;;10516881;28;20511;-73
2022/11/24 14:13:44;;;;;;;6.75;4.55;;;;;;;;;;10512515;28;20124;-75
2022/11/24 14:18:46;;;;;;;6.20;3.80;;;;;;;;;;10537591;28;20181;-74
2022/11/24 14:23:49;;;;;;;7.47;4.13;;;;;;;;;;10526951;28;20112;-73
2022/11/24 14:28:50;;;;;;;7.68;4.10;;;;;;;;;;10506420;28;20032;-75
2022/11/24 14:34:05;;;;;;;6.30;4.03;;;;;;;;;;10544107;28;20036;-75
2022/11/24 14:39:10;;;;;;;13.50;4.10;;;;;;;;;;10538599;28;20118;-75
2022/11/24 14:44:19;;;;;;;5.20;3.50;;;;;;;;;;10522454;28;20134;-75
2022/11/24 14:49:21;;;;;;;5.47;4.13;;;;;;;;;;10516077;28;20031;-75
2022/11/24 14:54:22;;;;;;;5.45;3.72;;;;;;;;;;10517133;28;20082;-80
2022/11/24 14:59:24;;;;;;;15.82;3.85;;;;;;;;;;10522449;28;20086;-80
2022/11/24 15:04:26;;;;;;;6.20;3.45;;;;;;;;;;10501981;28;20071;-74
2022/11/24 15:09:42;;;;;;;6.63;3.75;;;;;;;;;;10517595;28;20025;-75
2022/11/24 15:14:42;;;;;;;10.93;4.50;;;;;;;;;;10505561;28;20059;-73
2022/11/24 15:19:44;;;;;;;8.30;3.30;;;;;;;;;;10518472;28;20155;-73
2022/11/24 15:24:48;;;;;;;8.23;4.15;;;;;;;;;;10510988;28;20429;-75
2022/11/24 15:29:48;;;;;;;6.75;3.25;;;;;;;;;;10510692;28;20471;-74
2022/11/24 15:34:48;;;;;;;9.10;3.53;;;;;;;;;;10495268;28;20089;-74
2022/11/24 15:39:50;;;;;;;5.70;3.58;;;;;;;;;;10493763;28;20700;-74
2022/11/24 15:44:50;;;;;;;9.63;4.63;;;;;;;;;;10504704;28;20028;-74
2022/11/24 15:49:52;;;;;;;9.52;4.30;;;;;;;;;;10495845;28;20074;-74
2022/11/24 15:54:54;;;;;;;9.65;3.55;;;;;;;;;;10497143;28;20024;-73
2022/11/24 15:59:55;;;;;;;7.00;3.88;;;;;;;;;;10486939;28;20025;-76
2022/11/24 16:04:55;;;;;;;7.18;3.50;;;;;;;;;;10496492;28;20576;-73
2022/11/24 16:09:56;;;;;;;5.55;3.83;;;;;;;;;;10474948;28;20028;-73
2022/11/24 16:14:57;;;;;;;5.95;3.95;;;;;;;;;;10485780;28;20028;-74
2022/11/24 16:19:57;;;;;;;8.50;3.97;;;;;;;;;;10498932;28;20029;-76
2022/11/24 16:24:58;;;;;;;10.70;4.53;;;;;;;;;;10467573;28;20029;-74
2022/11/24 16:29:58;;;;;;;6.15;4.07;;;;;;;;;;10460588;28;20034;-73
2022/11/24 16:34:59;;;;;;;7.03;3.63;;;;;;;;;;10506992;28;20131;-73
2022/11/24 16:40:01;;;;;;;9.43;3.80;;;;;;;;;;10507918;28;20021;-75
2022/11/24 16:45:02;;;;;;;9.52;4.47;;;;;;;;;;10484211;28;20029;-72
2022/11/24 16:50:02;;;;;;;8.32;4.07;;;;;;;;;;10484706;28;20106;-72
2022/11/24 16:55:03;;;;;;;7.73;4.20;;;;;;;;;;10461068;28;20090;-74
2022/11/24 17:00:04;;;;;;;11.88;4.47;;;;;;;;;;10482637;28;20102;-76
2022/11/24 17:05:04;;;;;;;6.50;3.95;;;;;;;;;;10481150;28;20048;-74
2022/11/24 17:10:05;;;;;;;7.10;4.28;;;;;;;;;;10473474;28;20111;-76
2022/11/24 17:15:06;;;;;;;6.25;4.22;;;;;;;;;;10466783;28;20470;-71
2022/11/24 17:20:07;;;;;;;10.65;3.90;;;;;;;;;;10467825;28;20021;-72
2022/11/24 17:25:08;;;;;;;6.88;3.72;;;;;;;;;;10464953;28;20491;-73
2022/11/24 17:30:08;;;;;;;6.57;3.83;;;;;;;;;;10504758;28;20023;-74
2022/11/24 17:35:08;;;;;;;7.25;4.78;;;;;;;;;;10481380;28;20177;-75
2022/11/24 17:40:09;;;;;;;8.90;4.87;;;;;;;;;;10475664;28;20119;-72
2022/11/24 17:45:09;;;;;;;6.95;4.90;;;;;;;;;;10469297;28;20100;-74
2022/11/24 17:50:10;;;;;;;15.27;10.83;;;;;;;;;;10497568;28;20035;-74
2022/11/24 17:55:10;;;;;;;10.85;5.25;;;;;;;;;;10461286;28;20271;-76
2022/11/24 18:00:11;;;;;;;7.33;4.40;;;;;;;;;;10466642;28;20032;-72
2022/11/24 18:05:11;;;;;;;7.95;5.15;;;;;;;;;;10461917;28;20207;-80
2022/11/24 18:10:11;;;;;;;6.47;4.18;;;;;;;;;;10497277;28;20334;-71
2022/11/24 18:15:12;;;;;;;4.15;3.42;;;;;;;;;;10512537;28;20071;-76
2022/11/24 18:20:12;;;;;;;4.65;3.53;;;;;;;;;;10506585;28;20016;-73
2022/11/24 18:25:14;;;;;;;5.60;3.97;;;;;;;;;;10521662;28;20526;-74
2022/11/24 18:30:14;;;;;;;7.72;3.88;;;;;;;;;;10521193;28;20012;-73
2022/11/24 18:35:15;;;;;;;6.40;3.93;;;;;;;;;;10539880;28;20113;-76
2022/11/24 18:40:17;;;;;;;8.27;5.03;;;;;;;;;;10514135;28;20266;-76
2022/11/24 18:45:18;;;;;;;7.53;4.45;;;;;;;;;;10492015;28;20483;-75
2022/11/24 18:50:18;;;;;;;6.32;3.72;;;;;;;;;;10512838;28;20036;-74
2022/11/24 18:55:18;;;;;;;5.83;4.40;;;;;;;;;;10519708;28;20024;-72
2022/11/24 19:00:21;;;;;;;7.18;4.68;;;;;;;;;;10491882;28;20270;-73
2022/11/24 19:05:21;;;;;;;6.07;4.88;;;;;;;;;;10498397;28;20075;-72
2022/11/24 19:10:21;;;;;;;6.18;4.20;;;;;;;;;;10461873;28;20028;-75
2022/11/24 19:15:21;;;;;;;6.93;4.90;;;;;;;;;;10471294;28;20025;-72
2022/11/24 19:20:22;;;;;;;7.68;4.93;;;;;;;;;;10504416;28;20587;-74
2022/11/24 19:25:22;;;;;;;5.55;3.80;;;;;;;;;;10475985;28;20024;-76
2022/11/24 19:30:24;;;;;;;7.68;4.10;;;;;;;;;;10486177;28;20021;-73
2022/11/24 19:35:24;;;;;;;6.00;3.63;;;;;;;;;;10513648;28;20441;-75
2022/11/24 19:40:24;;;;;;;5.75;3.75;;;;;;;;;;10479383;28;20082;-74
2022/11/24 19:45:27;;;;;;;6.63;3.00;;;;;;;;;;10511041;28;20027;-84
2022/11/24 19:50:27;;;;;;;5.55;2.97;;;;;;;;;;10510484;28;20024;-74
2022/11/24 19:55:28;;;;;;;5.70;3.15;;;;;;;;;;10520292;28;20088;-75
2022/11/24 20:00:28;;;;;;;4.70;3.10;;;;;;;;;;10500542;28;20021;-78
2022/11/24 20:05:28;;;;;;;4.95;3.78;;;;;;;;;;10475826;28;20048;-78
2022/11/24 20:10:28;;;;;;;5.38;3.53;;;;;;;;;;10508971;28;20021;-72
2022/11/24 20:15:29;;;;;;;4.45;3.08;;;;;;;;;;10532352;28;20539;-74
2022/11/24 20:20:30;;;;;;;4.47;3.15;;;;;;;;;;10523084;28;20035;-76
2022/11/24 20:25:34;;;;;;;6.75;3.25;;;;;;;;;;10516068;28;20569;-74
2022/11/24 20:30:34;;;;;;;5.18;3.40;;;;;;;;;;10509852;28;20035;-74
2022/11/24 20:35:35;;;;;;;7.50;4.15;;;;;;;;;;10496991;28;20233;-75
2022/11/24 20:40:35;;;;;;;3.43;3.03;;;;;;;;;;10491202;28;20021;-75
2022/11/24 20:45:37;;;;;;;6.28;3.80;;;;;;;;;;10489024;28;20285;-74
2022/11/24 20:50:37;;;;;;;8.20;4.95;;;;;;;;;;10513681;28;20032;-73
2022/11/24 20:55:37;;;;;;;6.88;3.25;;;;;;;;;;10503869;28;20039;-77
2022/11/24 21:00:37;;;;;;;6.90;4.03;;;;;;;;;;10511226;28;20024;-76
2022/11/24 21:05:38;;;;;;;7.53;3.95;;;;;;;;;;10501651;28;20157;-74
2022/11/24 21:10:38;;;;;;;8.13;4.38;;;;;;;;;;10505796;28;20108;-76
2022/11/24 21:15:38;;;;;;;6.00;4.05;;;;;;;;;;10524293;28;20129;-75
2022/11/24 21:20:38;;;;;;;7.22;4.10;;;;;;;;;;10504217;28;20531;-74
2022/11/24 21:25:39;;;;;;;5.47;3.43;;;;;;;;;;10503330;28;20020;-77
2022/11/24 21:30:39;;;;;;;4.85;3.10;;;;;;;;;;10502688;28;20490;-73
2022/11/24 21:35:39;;;;;;;11.37;3.47;;;;;;;;;;10503336;28;20032;-74
2022/11/24 21:40:40;;;;;;;4.57;3.65;;;;;;;;;;10501338;28;20024;-77
2022/11/24 21:45:40;;;;;;;6.95;3.70;;;;;;;;;;10495682;28;20081;-78
2022/11/24 21:50:40;;;;;;;5.22;3.30;;;;;;;;;;10503377;28;20029;-75
2022/11/24 21:55:41;;;;;;;4.45;2.92;;;;;;;;;;10500116;28;20475;-74
2022/11/24 22:00:41;;;;;;;5.13;2.80;;;;;;;;;;10511737;28;20032;-73
2022/11/24 22:05:43;;;;;;;6.00;2.90;;;;;;;;;;10550124;28;20048;-73
2022/11/24 22:10:43;;;;;;;5.80;3.35;;;;;;;;;;10506817;28;20028;-76
2022/11/24 22:15:45;;;;;;;4.80;2.88;;;;;;;;;;10508356;28;20436;-75
2022/11/24 22:20:52;;;;;;;6.35;2.90;;;;;;;;;;10676457;22;20055;-74
2022/11/24 22:25:52;;;;;;;4.32;2.60;;;;;;;;;;10556560;27;20030;-76
2022/11/24 22:30:52;;;;;;;4.80;3.30;;;;;;;;;;10598936;27;20031;-76
2022/11/24 22:35:59;;;;;;;5.07;2.20;;;;;;;;;;10660249;27;20030;-74
2022/11/24 22:41:04;;;;;;;6.80;2.88;;;;;;;;;;10598480;27;20689;-73
2022/11/24 22:46:09;;;;;;;4.22;2.30;;;;;;;;;;10598487;27;20026;-76
2022/11/24 22:51:11;;;;;;;4.30;2.47;;;;;;;;;;10598251;27;20037;-80
2022/11/24 22:56:11;;;;;;;4.10;2.47;;;;;;;;;;10598317;27;20027;-72
2022/11/24 23:01:12;;;;;;;2.75;2.30;;;;;;;;;;10647905;27;20028;-74
2022/11/24 23:06:14;;;;;;;4.95;2.35;;;;;;;;;;10623385;27;20026;-79
2022/11/24 23:11:18;;;;;;;3.63;2.42;;;;;;;;;;10606373;27;20026;-75
2022/11/24 23:16:18;;;;;;;4.65;3.00;;;;;;;;;;10619010;27;20417;-73
2022/11/24 23:21:20;;;;;;;3.83;2.72;;;;;;;;;;10639757;27;20069;-73
2022/11/24 23:26:25;;;;;;;3.90;2.60;;;;;;;;;;10639683;27;20026;-80
2022/11/24 23:31:27;;;;;;;3.00;2.60;;;;;;;;;;10639776;27;20093;-75
2022/11/24 23:36:28;;;;;;;4.55;2.72;;;;;;;;;;10602005;27;20023;-74
2022/11/24 23:41:28;;;;;;;6.13;2.53;;;;;;;;;;10639776;27;20485;-74
2022/11/24 23:46:29;;;;;;;3.30;2.53;;;;;;;;;;10632363;27;20027;-74
2022/11/24 23:51:30;;;;;;;4.10;2.95;;;;;;;;;;10622573;27;20022;-74
2022/11/24 23:56:31;;;;;;;4.25;2.90;;;;;;;;;;10665117;27;20415;-73
